Time;durP1;ratioP1;P1;durP2;ratioP2;P2;SDS_P1;SDS_P2;PMS_P1;PMS_P2;Temp;Humidity;BMP_temperature;BMP_pressure;BME280_temperature;BME280_humidity;BME280_pressure;Samples;Min_cycle;Max_cycle;Signal;HPM_P1;HPM_P2
2022/05/24 00:00:10;;;;;;;2.65;1.30;;;;;;;;;;5046989;28;20040;-54
2022/05/24 00:02:36;;;;;;;6.13;1.55;;;;;;;;;;5046031;28;20028;-55
2022/05/24 00:05:02;;;;;;;3.63;1.75;;;;;;;;;;5050883;28;20384;-53
2022/05/24 00:07:29;;;;;;;2.17;1.42;;;;;;;;;;5050482;28;20500;-52
2022/05/24 00:09:55;;;;;;;4.57;2.10;;;;;;;;;;5050739;28;20124;-53
2022/05/24 00:12:21;;;;;;;4.35;1.98;;;;;;;;;;5050896;28;20512;-56
2022/05/24 00:17:31;;;;;;;3.10;1.75;;;;;;;;;;5044979;28;20542;-55
2022/05/24 00:19:57;;;;;;;7.68;1.63;;;;;;;;;;5046476;28;20030;-56
2022/05/24 00:22:23;;;;;;;2.42;1.42;;;;;;;;;;5047393;28;20403;-55
2022/05/24 00:24:49;;;;;;;2.25;1.40;;;;;;;;;;5042553;28;20096;-56
2022/05/24 00:27:15;;;;;;;2.67;1.60;;;;;;;;;;5047563;28;20109;-55
2022/05/24 00:29:41;;;;;;;4.63;1.88;;;;;;;;;;5031876;28;20021;-55
2022/05/24 00:32:07;;;;;;;2.70;1.60;;;;;;;;;;5047262;28;20067;-56
2022/05/24 00:34:33;;;;;;;4.03;1.70;;;;;;;;;;5050404;28;20085;-55
2022/05/24 00:36:59;;;;;;;16.35;2.33;;;;;;;;;;5050477;28;20037;-55
2022/05/24 00:39:25;;;;;;;2.38;1.60;;;;;;;;;;5050535;28;20037;-55
2022/05/24 00:41:59;;;;;;;3.25;1.60;;;;;;;;;;5047453;28;20395;-56
2022/05/24 00:44:28;;;;;;;6.32;1.70;;;;;;;;;;5028620;28;20027;-56
2022/05/24 00:46:57;;;;;;;2.03;1.38;;;;;;;;;;5043399;28;20028;-56
2022/05/24 00:49:38;;;;;;;3.55;1.92;;;;;;;;;;5040087;28;20083;-55
2022/05/24 00:52:13;;;;;;;3.95;1.95;;;;;;;;;;5050180;28;20452;-55
2022/05/24 00:54:40;;;;;;;6.82;1.95;;;;;;;;;;5050534;28;20163;-56
2022/05/24 00:57:11;;;;;;;2.90;1.60;;;;;;;;;;5050064;28;20609;-54
2022/05/24 00:59:41;;;;;;;7.28;2.22;;;;;;;;;;5048431;28;20116;-56
2022/05/24 01:02:06;;;;;;;2.72;1.50;;;;;;;;;;5044555;28;20029;-54
2022/05/24 01:04:33;;;;;;;4.90;1.88;;;;;;;;;;5037608;28;20380;-55
2022/05/24 01:06:59;;;;;;;2.17;1.35;;;;;;;;;;5050023;28;20055;-55
2022/05/24 01:09:37;;;;;;;8.57;2.05;;;;;;;;;;5050249;28;20029;-55
2022/05/24 01:12:06;;;;;;;2.88;1.73;;;;;;;;;;5050746;28;20104;-56
2022/05/24 01:14:33;;;;;;;2.70;1.65;;;;;;;;;;5053978;28;20407;-55
2022/05/24 01:16:59;;;;;;;3.38;1.70;;;;;;;;;;5049890;28;20028;-55
2022/05/24 01:19:32;;;;;;;2.75;1.90;;;;;;;;;;5042711;28;20033;-53
2022/05/24 01:22:01;;;;;;;2.55;1.55;;;;;;;;;;5043845;28;20111;-58
2022/05/24 01:24:31;;;;;;;4.88;1.55;;;;;;;;;;5053680;28;20480;-52
2022/05/24 01:26:57;;;;;;;3.75;1.60;;;;;;;;;;5053771;28;20029;-54
2022/05/24 01:29:25;;;;;;;3.47;1.40;;;;;;;;;;5052317;28;20052;-55
2022/05/24 01:37:21;;;;;;;3.47;1.70;;;;;;;;;;5053948;28;20043;-56
2022/05/24 01:39:51;;;;;;;3.95;1.60;;;;;;;;;;5051118;28;20124;-55
2022/05/24 01:42:17;;;;;;;2.92;1.58;;;;;;;;;;5042847;28;20079;-53
2022/05/24 01:45:04;;;;;;;4.10;1.58;;;;;;;;;;5053360;28;20530;-56
2022/05/24 01:47:31;;;;;;;5.35;1.60;;;;;;;;;;5048052;28;20029;-54
2022/05/24 01:49:59;;;;;;;2.50;1.48;;;;;;;;;;5052075;28;20029;-53
2022/05/24 01:52:29;;;;;;;2.75;1.67;;;;;;;;;;5049924;28;20035;-56
2022/05/24 01:55:08;;;;;;;4.10;1.52;;;;;;;;;;5043709;28;20036;-56
2022/05/24 01:57:40;;;;;;;4.07;1.98;;;;;;;;;;5040185;28;20025;-56
2022/05/24 02:00:07;;;;;;;4.32;2.50;;;;;;;;;;5050825;28;20029;-54
2022/05/24 02:02:33;;;;;;;4.25;1.73;;;;;;;;;;5048604;28;20029;-56
2022/05/24 02:04:59;;;;;;;5.82;1.73;;;;;;;;;;5051115;28;20107;-55
2022/05/24 02:07:26;;;;;;;4.95;1.83;;;;;;;;;;5052801;28;20428;-56
2022/05/24 02:09:57;;;;;;;4.88;1.73;;;;;;;;;;5052650;28;20025;-54
2022/05/24 02:12:30;;;;;;;3.55;1.73;;;;;;;;;;5036181;28;20029;-56
2022/05/24 02:15:02;;;;;;;4.88;1.80;;;;;;;;;;5047234;28;20025;-55
2022/05/24 02:17:30;;;;;;;2.47;1.60;;;;;;;;;;5047090;28;20030;-56
2022/05/24 02:19:58;;;;;;;5.85;2.30;;;;;;;;;;5049225;28;20145;-56
2022/05/24 02:22:25;;;;;;;3.28;1.80;;;;;;;;;;5052846;28;20035;-55
2022/05/24 02:25:03;;;;;;;8.52;1.85;;;;;;;;;;5051654;28;20488;-56
2022/05/24 02:27:29;;;;;;;2.70;1.65;;;;;;;;;;5049424;28;20074;-55
2022/05/24 02:29:56;;;;;;;4.70;2.10;;;;;;;;;;5052282;28;20021;-56
2022/05/24 02:32:22;;;;;;;2.92;1.92;;;;;;;;;;5049898;28;21291;-55
2022/05/24 02:34:48;;;;;;;2.88;1.80;;;;;;;;;;5048649;28;20025;-56
2022/05/24 02:37:14;;;;;;;3.20;1.95;;;;;;;;;;5048893;28;20480;-54
2022/05/24 02:42:25;;;;;;;4.47;1.90;;;;;;;;;;5048133;28;20039;-54
2022/05/24 02:44:51;;;;;;;4.68;2.40;;;;;;;;;;5041438;28;20025;-54
2022/05/24 02:47:17;;;;;;;5.82;2.30;;;;;;;;;;5051537;28;20104;-56
2022/05/24 02:49:43;;;;;;;2.88;2.13;;;;;;;;;;5044503;28;20101;-54
2022/05/24 02:52:09;;;;;;;8.55;2.85;;;;;;;;;;5051113;28;20507;-55
2022/05/24 02:54:35;;;;;;;5.13;2.60;;;;;;;;;;5052427;28;20425;-55
2022/05/24 02:57:04;;;;;;;4.32;2.30;;;;;;;;;;5052383;28;20047;-54
2022/05/24 02:59:30;;;;;;;5.05;2.47;;;;;;;;;;5051943;28;20476;-54
2022/05/24 03:01:56;;;;;;;4.38;2.60;;;;;;;;;;5038236;28;20043;-54
2022/05/24 03:04:22;;;;;;;6.53;2.33;;;;;;;;;;5036867;28;20029;-53
2022/05/24 03:09:36;;;;;;;3.97;2.33;;;;;;;;;;5051744;28;20032;-54
2022/05/24 03:14:49;;;;;;;3.50;2.40;;;;;;;;;;5032335;28;20082;-54
2022/05/24 03:17:16;;;;;;;3.80;2.60;;;;;;;;;;5049172;28;20032;-53
2022/05/24 03:19:42;;;;;;;4.32;2.22;;;;;;;;;;5049871;28;20558;-53
2022/05/24 03:22:09;;;;;;;4.38;2.78;;;;;;;;;;5047369;28;20033;-54
2022/05/24 03:24:35;;;;;;;6.68;3.17;;;;;;;;;;5051604;28;20025;-55
2022/05/24 03:27:01;;;;;;;6.65;3.00;;;;;;;;;;5051691;28;20105;-54
2022/05/24 03:29:27;;;;;;;6.30;3.05;;;;;;;;;;5030030;28;20389;-55
2022/05/24 03:31:53;;;;;;;5.07;3.15;;;;;;;;;;5041637;28;20056;-54
2022/05/24 03:34:19;;;;;;;6.85;3.35;;;;;;;;;;5047383;28;20108;-54
2022/05/24 03:36:45;;;;;;;5.53;3.40;;;;;;;;;;5043793;28;20586;-53
2022/05/24 03:39:11;;;;;;;3.95;2.95;;;;;;;;;;5051250;28;20382;-53
2022/05/24 03:41:40;;;;;;;5.47;3.40;;;;;;;;;;5045142;28;20401;-53
2022/05/24 03:44:06;;;;;;;5.05;3.33;;;;;;;;;;5032703;28;20029;-55
2022/05/24 03:46:32;;;;;;;5.13;3.47;;;;;;;;;;5051065;28;20108;-54
2022/05/24 03:48:58;;;;;;;3.97;2.80;;;;;;;;;;5034242;28;20528;-53
2022/05/24 03:51:24;;;;;;;6.15;3.17;;;;;;;;;;5040912;28;20033;-54
2022/05/24 03:53:50;;;;;;;7.72;4.40;;;;;;;;;;5050482;28;20039;-54
2022/05/24 03:56:16;;;;;;;6.20;3.95;;;;;;;;;;5033409;28;20017;-54
2022/05/24 03:58:42;;;;;;;6.80;4.10;;;;;;;;;;5040903;28;20033;-53
2022/05/24 04:01:08;;;;;;;5.72;4.10;;;;;;;;;;5048010;28;20064;-53
2022/05/24 04:03:35;;;;;;;5.68;3.58;;;;;;;;;;5049205;28;20483;-55
2022/05/24 04:06:01;;;;;;;7.35;3.78;;;;;;;;;;5042975;28;20044;-53
2022/05/24 04:08:29;;;;;;;5.60;4.03;;;;;;;;;;5042506;28;20032;-53
2022/05/24 04:11:02;;;;;;;6.20;3.72;;;;;;;;;;5047835;28;20025;-51
2022/05/24 04:13:28;;;;;;;7.55;4.20;;;;;;;;;;5035377;28;20032;-53
2022/05/24 04:15:54;;;;;;;7.70;4.18;;;;;;;;;;5005677;28;20029;-52
2022/05/24 04:18:20;;;;;;;6.03;4.05;;;;;;;;;;5037102;28;20025;-53
2022/05/24 04:20:46;;;;;;;7.00;4.10;;;;;;;;;;5049503;28;20029;-52
2022/05/24 04:23:14;;;;;;;6.53;4.10;;;;;;;;;;5039967;28;20025;-51
2022/05/24 04:25:40;;;;;;;10.10;5.15;;;;;;;;;;5049496;28;20537;-52
2022/05/24 04:28:06;;;;;;;7.00;5.03;;;;;;;;;;5040733;28;20051;-54
2022/05/24 04:30:32;;;;;;;6.75;5.10;;;;;;;;;;5044637;28;20026;-52
2022/05/24 04:32:58;;;;;;;7.72;5.22;;;;;;;;;;5048820;28;20028;-54
2022/05/24 04:35:24;;;;;;;10.95;5.47;;;;;;;;;;5049353;28;20480;-55
2022/05/24 04:37:50;;;;;;;6.57;4.68;;;;;;;;;;5040452;28;20037;-54
2022/05/24 04:40:16;;;;;;;5.47;4.30;;;;;;;;;;5041625;28;20033;-52
2022/05/24 04:42:42;;;;;;;7.35;4.80;;;;;;;;;;5027385;28;20037;-53
2022/05/24 04:45:10;;;;;;;6.22;4.60;;;;;;;;;;5039460;28;20072;-55
2022/05/24 04:47:37;;;;;;;7.25;3.97;;;;;;;;;;5044874;28;20048;-49
2022/05/24 04:50:05;;;;;;;4.80;3.92;;;;;;;;;;5044402;28;20033;-53
2022/05/24 04:52:33;;;;;;;5.35;3.85;;;;;;;;;;5060953;28;20041;-52
2022/05/24 04:54:59;;;;;;;4.97;3.97;;;;;;;;;;5043272;28;20037;-53
2022/05/24 04:57:25;;;;;;;6.65;4.63;;;;;;;;;;5037598;28;20028;-53
2022/05/24 04:59:51;;;;;;;5.75;3.88;;;;;;;;;;5042090;28;20036;-52
2022/05/24 05:02:19;;;;;;;7.57;4.55;;;;;;;;;;5048657;28;20111;-54
2022/05/24 05:04:45;;;;;;;8.07;4.78;;;;;;;;;;5045571;28;20024;-53
2022/05/24 05:07:11;;;;;;;6.72;4.18;;;;;;;;;;5046854;28;20041;-52
2022/05/24 05:09:38;;;;;;;6.80;4.35;;;;;;;;;;5042557;28;20443;-53
2022/05/24 05:12:08;;;;;;;7.97;3.88;;;;;;;;;;5050722;28;20039;-51
2022/05/24 05:14:34;;;;;;;6.70;4.13;;;;;;;;;;5046115;28;20025;-53
2022/05/24 05:17:00;;;;;;;6.07;4.38;;;;;;;;;;5036177;28;20026;-52
2022/05/24 05:19:27;;;;;;;7.88;5.22;;;;;;;;;;5038392;28;20064;-54
2022/05/24 05:21:54;;;;;;;7.18;5.05;;;;;;;;;;5053646;28;20413;-55
2022/05/24 05:24:20;;;;;;;6.97;4.30;;;;;;;;;;5024395;28;20059;-51
2022/05/24 05:26:46;;;;;;;10.10;4.38;;;;;;;;;;5046017;28;20539;-52
2022/05/24 05:29:12;;;;;;;7.28;4.97;;;;;;;;;;5049416;28;20017;-51
2022/05/24 05:31:38;;;;;;;9.77;4.93;;;;;;;;;;5053212;28;20036;-51
2022/05/24 05:34:04;;;;;;;5.78;4.13;;;;;;;;;;5040010;28;20051;-51
2022/05/24 05:36:31;;;;;;;7.82;4.40;;;;;;;;;;5049119;28;20025;-53
2022/05/24 05:38:57;;;;;;;6.63;4.53;;;;;;;;;;5051727;28;20040;-53
2022/05/24 05:41:25;;;;;;;7.80;4.57;;;;;;;;;;5044383;28;20036;-52
2022/05/24 05:43:51;;;;;;;7.50;4.32;;;;;;;;;;5039986;28;20037;-54
2022/05/24 05:46:18;;;;;;;5.80;4.35;;;;;;;;;;5048010;28;20025;-54
2022/05/24 05:48:44;;;;;;;6.53;4.80;;;;;;;;;;5044721;28;20031;-52
2022/05/24 05:51:11;;;;;;;6.57;4.00;;;;;;;;;;5047404;28;20031;-53
2022/05/24 05:53:38;;;;;;;5.45;3.90;;;;;;;;;;5049056;28;20119;-54
2022/05/24 05:56:04;;;;;;;6.05;4.28;;;;;;;;;;5048207;28;20033;-54
2022/05/24 05:58:31;;;;;;;7.18;4.30;;;;;;;;;;5049001;28;20175;-53
2022/05/24 06:00:57;;;;;;;4.90;3.38;;;;;;;;;;5051736;28;20382;-52
2022/05/24 06:03:23;;;;;;;5.25;3.33;;;;;;;;;;5039439;28;20113;-52
2022/05/24 06:05:51;;;;;;;4.85;3.55;;;;;;;;;;5052061;28;20114;-49
2022/05/24 06:08:17;;;;;;;4.95;3.60;;;;;;;;;;5039166;28;20574;-52
2022/05/24 06:10:43;;;;;;;4.90;3.40;;;;;;;;;;5039706;28;20025;-48
2022/05/24 06:13:09;;;;;;;5.13;3.25;;;;;;;;;;5044433;28;20547;-52
2022/05/24 06:15:36;;;;;;;5.50;3.28;;;;;;;;;;5051990;28;20086;-51
2022/05/24 06:18:02;;;;;;;3.95;2.90;;;;;;;;;;5041642;28;20115;-52
2022/05/24 06:20:30;;;;;;;3.45;2.45;;;;;;;;;;5051596;28;20033;-53
2022/05/24 06:22:57;;;;;;;3.47;2.75;;;;;;;;;;5040848;28;20033;-53
2022/05/24 06:25:25;;;;;;;7.57;2.78;;;;;;;;;;5052881;28;20021;-53
2022/05/24 06:27:51;;;;;;;5.03;2.70;;;;;;;;;;5022243;28;20112;-52
2022/05/24 06:30:20;;;;;;;3.60;2.67;;;;;;;;;;5043754;28;20021;-52
2022/05/24 06:32:46;;;;;;;3.70;2.20;;;;;;;;;;5048616;28;20520;-52
2022/05/24 06:35:12;;;;;;;3.85;2.22;;;;;;;;;;5046016;28;20029;-53
2022/05/24 06:37:38;;;;;;;3.13;2.15;;;;;;;;;;5044548;28;20108;-53
2022/05/24 06:40:04;;;;;;;4.00;2.35;;;;;;;;;;5028451;28;20136;-52
2022/05/24 06:42:30;;;;;;;3.78;2.00;;;;;;;;;;5044308;28;20033;-53
2022/05/24 06:44:56;;;;;;;3.28;2.20;;;;;;;;;;5046340;28;20182;-50
2022/05/24 06:47:22;;;;;;;3.42;2.40;;;;;;;;;;5045812;28;20482;-52
2022/05/24 06:49:49;;;;;;;2.63;1.90;;;;;;;;;;5040855;28;20487;-52
2022/05/24 06:52:15;;;;;;;3.15;1.98;;;;;;;;;;5040600;28;20029;-53
2022/05/24 06:54:41;;;;;;;4.20;1.80;;;;;;;;;;5037531;28;20546;-53
2022/05/24 06:57:07;;;;;;;3.50;2.00;;;;;;;;;;5042864;28;20029;-53
2022/05/24 07:02:27;;;;;;;3.20;2.30;;;;;;;;;;5042011;28;20407;-55
2022/05/24 07:05:04;;;;;;;2.47;1.80;;;;;;;;;;5036536;28;20432;-54
2022/05/24 07:07:32;;;;;;;3.58;1.75;;;;;;;;;;5049886;28;20041;-54
2022/05/24 07:09:58;;;;;;;4.05;2.10;;;;;;;;;;5050288;28;20076;-53
2022/05/24 07:12:25;;;;;;;3.17;1.63;;;;;;;;;;5044449;28;20033;-52
2022/05/24 07:14:51;;;;;;;2.22;1.50;;;;;;;;;;5050510;28;20060;-53
2022/05/24 07:17:17;;;;;;;5.32;2.08;;;;;;;;;;5038858;28;20064;-53
2022/05/24 07:19:44;;;;;;;2.97;1.63;;;;;;;;;;5036088;28;20021;-49
2022/05/24 07:22:10;;;;;;;2.22;1.40;;;;;;;;;;5035439;28;20044;-52
2022/05/24 07:24:36;;;;;;;2.28;1.65;;;;;;;;;;5039032;28;20501;-55
2022/05/24 07:27:04;;;;;;;3.15;1.50;;;;;;;;;;5047909;28;20029;-53
2022/05/24 07:29:33;;;;;;;2.97;2.03;;;;;;;;;;5036761;28;20078;-52
2022/05/24 07:31:59;;;;;;;2.90;1.92;;;;;;;;;;5048761;28;20097;-55
2022/05/24 07:34:26;;;;;;;2.95;1.73;;;;;;;;;;5043237;28;20026;-56
2022/05/24 07:36:52;;;;;;;2.17;1.58;;;;;;;;;;5026899;28;20032;-55
2022/05/24 07:39:18;;;;;;;2.47;1.40;;;;;;;;;;5048901;28;20029;-56
2022/05/24 07:47:14;;;;;;;3.47;1.67;;;;;;;;;;5042315;28;20099;-56
2022/05/24 07:49:39;;;;;;;3.78;1.70;;;;;;;;;;5049994;28;20021;-54
2022/05/24 07:52:06;;;;;;;2.38;1.58;;;;;;;;;;5052050;28;20483;-56
2022/05/24 07:54:32;;;;;;;2.25;1.30;;;;;;;;;;5042733;28;20075;-53
2022/05/24 07:56:58;;;;;;;3.75;1.95;;;;;;;;;;5042006;28;20033;-56
2022/05/24 07:59:25;;;;;;;1.92;1.30;;;;;;;;;;5038784;28;20047;-54
2022/05/24 08:01:51;;;;;;;1.70;1.15;;;;;;;;;;5042096;28;20164;-54
2022/05/24 08:04:17;;;;;;;1.65;1.23;;;;;;;;;;5043471;28;20455;-54
2022/05/24 08:06:43;;;;;;;4.95;1.55;;;;;;;;;;5042694;28;20179;-54
2022/05/24 08:09:09;;;;;;;5.47;1.63;;;;;;;;;;5040590;28;20021;-55
2022/05/24 08:11:35;;;;;;;2.40;1.85;;;;;;;;;;5046710;28;20025;-55
2022/05/24 08:14:02;;;;;;;2.08;1.60;;;;;;;;;;5045358;28;20041;-55
2022/05/24 08:16:29;;;;;;;3.83;1.63;;;;;;;;;;5031519;28;20029;-49
2022/05/24 08:18:58;;;;;;;2.17;1.40;;;;;;;;;;5033531;28;20029;-53
2022/05/24 08:21:24;;;;;;;3.80;1.33;;;;;;;;;;5032584;28;20032;-54
2022/05/24 08:23:50;;;;;;;4.65;1.75;;;;;;;;;;5044907;28;20112;-54
2022/05/24 08:26:16;;;;;;;1.80;1.33;;;;;;;;;;5033399;28;20527;-53
2022/05/24 08:28:43;;;;;;;2.42;1.15;;;;;;;;;;5036790;28;20455;-54
2022/05/24 08:31:10;;;;;;;2.78;0.82;;;;;;;;;;5029238;28;20108;-54
2022/05/24 08:33:36;;;;;;;2.40;1.02;;;;;;;;;;5025881;28;20077;-53
2022/05/24 08:36:02;;;;;;;2.45;1.05;;;;;;;;;;5042174;28;20039;-54
2022/05/24 08:38:28;;;;;;;1.25;0.73;;;;;;;;;;5041412;28;20079;-54
2022/05/24 08:40:56;;;;;;;1.27;0.73;;;;;;;;;;5037938;28;20029;-53
2022/05/24 08:43:58;;;;;;;2.50;1.17;;;;;;;;;;5023996;28;20033;-55
2022/05/24 08:49:17;;;;;;;1.13;0.90;;;;;;;;;;5030898;28;20151;-54
2022/05/24 08:51:48;;;;;;;1.63;1.02;;;;;;;;;;5033551;28;20553;-54
2022/05/24 08:54:18;;;;;;;2.97;0.98;;;;;;;;;;5033247;28;20026;-55
2022/05/24 08:56:52;;;;;;;0.82;0.68;;;;;;;;;;5039050;28;20109;-55
2022/05/24 08:59:33;;;;;;;2.85;0.57;;;;;;;;;;5035627;28;20030;-54
2022/05/24 09:01:59;;;;;;;0.90;0.50;;;;;;;;;;5029460;28;20043;-53
2022/05/24 09:04:26;;;;;;;0.50;0.47;;;;;;;;;;5050380;28;20036;-53
2022/05/24 09:06:53;;;;;;;1.08;0.47;;;;;;;;;;5041238;28;20500;-55
2022/05/24 09:09:30;;;;;;;2.30;0.60;;;;;;;;;;5043164;28;20035;-52
2022/05/24 09:12:04;;;;;;;1.00;0.47;;;;;;;;;;5025872;28;20034;-52
2022/05/24 09:14:33;;;;;;;2.95;0.60;;;;;;;;;;5036485;28;20179;-54
2022/05/24 09:17:12;;;;;;;1.10;0.50;;;;;;;;;;5033161;28;20033;-55
2022/05/24 09:19:40;;;;;;;2.28;0.60;;;;;;;;;;5040566;28;20035;-53
2022/05/24 09:22:11;;;;;;;2.08;0.50;;;;;;;;;;5030737;28;20612;-53
2022/05/24 09:24:45;;;;;;;1.35;0.50;;;;;;;;;;5034905;28;20392;-56
2022/05/24 09:27:19;;;;;;;2.15;0.70;;;;;;;;;;5042503;28;20083;-54
2022/05/24 09:29:54;;;;;;;1.30;0.60;;;;;;;;;;5041475;28;20021;-54
2022/05/24 09:32:21;;;;;;;1.20;0.70;;;;;;;;;;5042681;28;20068;-53
2022/05/24 09:34:47;;;;;;;0.95;0.70;;;;;;;;;;5042128;28;20029;-54
2022/05/24 09:37:22;;;;;;;1.30;0.68;;;;;;;;;;5038221;28;20025;-53
2022/05/24 09:40:02;;;;;;;1.58;0.57;;;;;;;;;;5044711;28;20025;-49
2022/05/24 09:42:30;;;;;;;0.68;0.50;;;;;;;;;;5039140;28;20040;-53
2022/05/24 09:45:15;;;;;;;1.88;0.88;;;;;;;;;;5049137;28;20388;-54
2022/05/24 09:47:43;;;;;;;0.60;0.60;;;;;;;;;;5047465;28;20513;-53
2022/05/24 09:50:19;;;;;;;0.82;0.47;;;;;;;;;;5028148;28;20025;-53
2022/05/24 09:53:05;;;;;;;1.50;0.95;;;;;;;;;;5037873;28;20032;-53
2022/05/24 09:55:38;;;;;;;1.02;0.70;;;;;;;;;;5039449;28;21709;-54
2022/05/24 09:58:16;;;;;;;0.43;0.40;;;;;;;;;;5049747;28;20025;-55
2022/05/24 10:00:53;;;;;;;1.38;0.90;;;;;;;;;;5052511;28;20112;-55
2022/05/24 10:03:29;;;;;;;0.90;0.70;;;;;;;;;;5035247;28;20934;-54
2022/05/24 10:05:57;;;;;;;0.95;0.65;;;;;;;;;;5046357;28;20056;-54
2022/05/24 10:08:23;;;;;;;0.80;0.45;;;;;;;;;;5052674;28;20072;-52
2022/05/24 10:10:54;;;;;;;0.60;0.50;;;;;;;;;;5044080;28;20083;-54
2022/05/24 10:13:35;;;;;;;0.82;0.68;;;;;;;;;;5043396;28;20518;-53
2022/05/24 10:16:01;;;;;;;1.15;0.70;;;;;;;;;;5035589;28;20091;-54
2022/05/24 10:18:53;;;;;;;1.55;0.88;;;;;;;;;;5052599;28;20029;-56
2022/05/24 10:21:23;;;;;;;1.77;0.70;;;;;;;;;;5003232;28;20048;-54
2022/05/24 10:24:03;;;;;;;0.90;0.60;;;;;;;;;;5046810;28;20064;-54
2022/05/24 10:27:13;;;;;;;1.00;0.73;;;;;;;;;;5047269;28;20100;-53
2022/05/24 10:29:49;;;;;;;1.42;0.82;;;;;;;;;;4947877;28;20032;-54
2022/05/24 10:40:51;;;;;;;1.13;0.55;;;;;;;;;;5026515;28;20049;-52
2022/05/24 10:43:24;;;;;;;0.68;0.40;;;;;;;;;;5041661;28;20112;-52
2022/05/24 10:45:50;;;;;;;;;;;;;;;;;;5043969;28;20389;-49
2022/05/24 10:48:20;;;;;;;0.60;0.40;;;;;;;;;;5042166;28;19952;-54
2022/05/24 10:50:50;;;;;;;2.80;0.50;;;;;;;;;;5038098;28;20039;-54
2022/05/24 10:53:21;;;;;;;0.88;0.43;;;;;;;;;;5035079;28;20053;-57
2022/05/24 10:56:00;;;;;;;0.80;0.60;;;;;;;;;;5047754;28;20037;-56
2022/05/24 10:58:29;;;;;;;0.90;0.60;;;;;;;;;;5044825;28;20400;-55
2022/05/24 11:01:06;;;;;;;2.17;0.47;;;;;;;;;;5039567;28;20047;-52
2022/05/24 11:03:33;;;;;;;1.02;0.52;;;;;;;;;;5037239;28;20580;-55
2022/05/24 11:06:04;;;;;;;2.53;0.60;;;;;;;;;;5047304;28;20037;-52
2022/05/24 11:08:36;;;;;;;0.82;0.50;;;;;;;;;;5042286;28;20040;-55
2022/05/24 11:11:06;;;;;;;0.65;0.50;;;;;;;;;;5039358;28;20448;-55
2022/05/24 11:13:40;;;;;;;0.82;0.43;;;;;;;;;;5041049;28;20044;-56
2022/05/24 11:16:11;;;;;;;1.02;0.38;;;;;;;;;;5030926;28;20542;-55
2022/05/24 11:18:40;;;;;;;2.17;0.68;;;;;;;;;;5043253;28;20040;-54
2022/05/24 11:21:12;;;;;;;0.88;0.65;;;;;;;;;;5032167;28;20078;-53
2022/05/24 11:23:41;;;;;;;0.93;0.50;;;;;;;;;;5032600;28;20056;-53
2022/05/24 11:26:12;;;;;;;0.98;0.43;;;;;;;;;;5035138;28;20029;-53
2022/05/24 11:28:47;;;;;;;0.73;0.50;;;;;;;;;;5032712;28;20028;-55
2022/05/24 11:31:37;;;;;;;0.73;0.50;;;;;;;;;;5044338;28;20067;-52
2022/05/24 11:34:11;;;;;;;1.85;0.47;;;;;;;;;;5039693;28;20527;-55
2022/05/24 11:36:40;;;;;;;2.53;0.43;;;;;;;;;;5041295;28;20037;-54
2022/05/24 11:39:15;;;;;;;0.73;0.45;;;;;;;;;;5042824;28;20480;-56
2022/05/24 11:41:41;;;;;;;0.63;0.43;;;;;;;;;;5038156;28;20029;-55
2022/05/24 11:44:08;;;;;;;0.77;0.50;;;;;;;;;;5037137;28;20132;-53
2022/05/24 11:46:34;;;;;;;0.88;0.43;;;;;;;;;;5048067;28;20546;-53
2022/05/24 11:49:05;;;;;;;0.60;0.40;;;;;;;;;;5036386;28;20021;-55
2022/05/24 11:51:31;;;;;;;0.80;0.60;;;;;;;;;;5042480;28;20029;-55
2022/05/24 11:53:57;;;;;;;0.93;0.60;;;;;;;;;;5031974;28;20088;-54
2022/05/24 11:56:24;;;;;;;1.52;0.47;;;;;;;;;;5035074;28;20061;-52
2022/05/24 11:58:52;;;;;;;1.85;0.60;;;;;;;;;;5040048;28;20033;-56
2022/05/24 12:01:19;;;;;;;1.67;0.50;;;;;;;;;;5046417;28;20037;-56
2022/05/24 12:10:00;;;;;;;0.50;0.40;;;;;;;;;;5035748;28;20059;-54
2022/05/24 12:12:46;;;;;;;1.35;0.77;;;;;;;;;;5042170;28;20032;-53
2022/05/24 12:15:12;;;;;;;2.72;1.05;;;;;;;;;;5041314;28;20116;-53
2022/05/24 12:17:38;;;;;;;0.98;0.60;;;;;;;;;;5039510;28;20029;-52
2022/05/24 12:20:05;;;;;;;3.10;0.70;;;;;;;;;;5030322;28;20035;-52
2022/05/24 12:22:41;;;;;;;2.10;0.70;;;;;;;;;;5047130;28;20027;-51
2022/05/24 12:25:07;;;;;;;1.27;0.70;;;;;;;;;;5033174;28;20018;-49
2022/05/24 12:27:49;;;;;;;1.30;0.80;;;;;;;;;;5043678;28;20029;-51
2022/05/24 12:30:24;;;;;;;3.03;0.52;;;;;;;;;;5042036;28;20499;-52
2022/05/24 12:32:52;;;;;;;2.40;0.63;;;;;;;;;;5032213;28;20482;-49
2022/05/24 12:35:19;;;;;;;1.45;0.60;;;;;;;;;;5026132;28;20037;-49
2022/05/24 12:37:47;;;;;;;1.58;0.70;;;;;;;;;;5043731;28;20520;-52
2022/05/24 12:40:19;;;;;;;1.25;0.60;;;;;;;;;;5048833;28;20017;-51
2022/05/24 12:42:47;;;;;;;0.95;0.70;;;;;;;;;;5034739;28;21994;-48
2022/05/24 12:45:14;;;;;;;2.45;0.63;;;;;;;;;;5033799;28;20033;-49
2022/05/24 12:47:42;;;;;;;0.77;0.55;;;;;;;;;;5034380;28;20025;-50
2022/05/24 12:50:08;;;;;;;2.85;1.10;;;;;;;;;;5043384;28;20029;-51
2022/05/24 12:52:40;;;;;;;1.23;0.98;;;;;;;;;;5031730;28;20051;-53
2022/05/24 12:55:07;;;;;;;1.10;1.00;;;;;;;;;;5030162;28;20033;-52
2022/05/24 12:57:39;;;;;;;1.77;0.77;;;;;;;;;;5031321;28;20034;-50
2022/05/24 13:00:22;;;;;;;0.70;0.60;;;;;;;;;;5035558;28;20022;-53
2022/05/24 13:02:50;;;;;;;1.77;0.82;;;;;;;;;;5028379;28;20037;-53
2022/05/24 13:05:16;;;;;;;1.00;0.90;;;;;;;;;;5035839;28;20436;-52
2022/05/24 13:08:01;;;;;;;1.02;0.73;;;;;;;;;;5031715;28;20496;-53
2022/05/24 13:10:27;;;;;;;1.38;0.65;;;;;;;;;;5034112;28;20029;-51
2022/05/24 13:12:58;;;;;;;2.15;1.17;;;;;;;;;;5047069;28;20122;-53
2022/05/24 13:15:56;;;;;;;1.52;1.00;;;;;;;;;;5037178;28;20030;-54
2022/05/24 13:18:27;;;;;;;3.42;1.40;;;;;;;;;;4987981;28;20049;-54
2022/05/24 13:20:57;;;;;;;3.85;1.20;;;;;;;;;;5044828;28;20037;-52
2022/05/24 13:23:25;;;;;;;1.80;1.02;;;;;;;;;;5038793;28;20065;-53
2022/05/24 13:25:53;;;;;;;3.95;0.98;;;;;;;;;;5043227;28;20091;-53
2022/05/24 13:28:38;;;;;;;2.33;1.17;;;;;;;;;;5040856;28;20488;-54
2022/05/24 13:33:51;;;;;;;1.73;1.00;;;;;;;;;;5038036;28;20517;-51
2022/05/24 13:36:22;;;;;;;1.65;1.13;;;;;;;;;;5036345;28;20037;-53
2022/05/24 13:38:50;;;;;;;1.95;1.33;;;;;;;;;;5043100;28;20061;-55
2022/05/24 13:41:27;;;;;;;1.88;1.10;;;;;;;;;;5038688;28;20125;-53
2022/05/24 13:44:06;;;;;;;1.67;1.42;;;;;;;;;;5041438;28;20476;-53
2022/05/24 13:46:46;;;;;;;2.13;1.20;;;;;;;;;;5041854;28;20131;-50
2022/05/24 13:49:25;;;;;;;4.32;1.40;;;;;;;;;;5044166;28;20028;-55
2022/05/24 13:51:51;;;;;;;4.65;1.40;;;;;;;;;;5048822;28;20116;-55
2022/05/24 13:54:37;;;;;;;1.42;0.98;;;;;;;;;;5040453;28;20531;-55
2022/05/24 13:57:03;;;;;;;2.20;1.40;;;;;;;;;;5036230;28;20044;-52
2022/05/24 13:59:29;;;;;;;3.60;1.23;;;;;;;;;;5047682;28;20523;-53
2022/05/24 14:02:09;;;;;;;0.85;0.85;;;;;;;;;;5046496;28;20052;-56
2022/05/24 14:04:39;;;;;;;2.55;1.00;;;;;;;;;;5035414;28;20056;-55
2022/05/24 14:07:05;;;;;;;4.85;0.80;;;;;;;;;;5041367;28;20054;-55
2022/05/24 14:09:33;;;;;;;1.98;0.73;;;;;;;;;;5044857;28;20033;-54
2022/05/24 14:12:00;;;;;;;0.38;0.30;;;;;;;;;;5036667;28;20033;-52
2022/05/24 14:14:33;;;;;;;1.17;0.52;;;;;;;;;;5034943;28;20541;-54
2022/05/24 14:17:00;;;;;;;1.07;0.70;;;;;;;;;;5042656;28;20041;-55
2022/05/24 14:19:26;;;;;;;0.35;0.35;;;;;;;;;;5049002;28;20043;-55
2022/05/24 14:21:55;;;;;;;1.00;0.68;;;;;;;;;;5041633;28;20104;-54
2022/05/24 14:24:23;;;;;;;0.82;0.52;;;;;;;;;;5039570;28;20032;-56
2022/05/24 14:26:53;;;;;;;0.95;0.60;;;;;;;;;;5030999;28;20035;-55
2022/05/24 14:29:20;;;;;;;1.17;0.55;;;;;;;;;;5043141;28;20021;-56
2022/05/24 14:31:46;;;;;;;2.55;0.68;;;;;;;;;;5031777;28;20472;-55
2022/05/24 14:34:13;;;;;;;0.90;0.60;;;;;;;;;;5038762;28;20056;-56
2022/05/24 14:36:39;;;;;;;1.48;0.63;;;;;;;;;;5043314;28;20022;-55
2022/05/24 14:39:06;;;;;;;0.88;0.65;;;;;;;;;;5044602;28;20029;-54
2022/05/24 14:41:32;;;;;;;2.40;0.50;;;;;;;;;;5032136;28;20022;-56
2022/05/24 14:44:03;;;;;;;1.77;0.70;;;;;;;;;;5045174;28;20491;-54
2022/05/24 14:46:30;;;;;;;1.05;0.57;;;;;;;;;;5042485;28;20021;-56
2022/05/24 14:48:56;;;;;;;1.42;0.60;;;;;;;;;;5046992;28;20377;-55
2022/05/24 14:51:25;;;;;;;2.30;0.45;;;;;;;;;;5040988;28;20708;-54
2022/05/24 14:53:51;;;;;;;0.30;0.22;;;;;;;;;;5041646;28;20105;-56
2022/05/24 14:56:17;;;;;;;1.40;0.60;;;;;;;;;;5040344;28;20436;-54
2022/05/24 14:58:43;;;;;;;0.60;0.43;;;;;;;;;;5041995;28;20025;-56
2022/05/24 15:01:09;;;;;;;0.32;0.32;;;;;;;;;;5043863;28;20022;-56
2022/05/24 15:03:35;;;;;;;1.17;0.40;;;;;;;;;;5041011;28;20025;-55
2022/05/24 15:06:01;;;;;;;0.47;0.40;;;;;;;;;;5048440;28;20012;-54
2022/05/24 15:16:49;;;;;;;0.90;0.73;;;;;;;;;;5063995;28;20047;-55
2022/05/24 15:19:14;;;;;;;1.23;0.63;;;;;;;;;;5047882;28;21042;-54
2022/05/24 15:21:43;;;;;;;0.80;0.50;;;;;;;;;;5042432;28;20034;-54
2022/05/24 15:24:11;;;;;;;0.90;0.60;;;;;;;;;;5036555;28;20067;-54
2022/05/24 15:26:39;;;;;;;1.33;0.70;;;;;;;;;;5037657;28;20044;-53
2022/05/24 15:29:06;;;;;;;1.85;0.70;;;;;;;;;;5029659;28;20036;-55
2022/05/24 15:31:33;;;;;;;1.45;0.80;;;;;;;;;;5040390;28;20025;-56
2022/05/24 15:34:02;;;;;;;1.92;0.50;;;;;;;;;;5054543;28;20059;-57
2022/05/24 15:36:27;;;;;;;1.20;0.70;;;;;;;;;;5044740;28;20032;-54
2022/05/24 15:38:53;;;;;;;1.00;0.60;;;;;;;;;;5043552;28;20634;-54
2022/05/24 15:41:19;;;;;;;0.80;0.75;;;;;;;;;;5040505;28;20112;-55
2022/05/24 15:43:46;;;;;;;0.88;0.63;;;;;;;;;;5056382;28;20078;-56
2022/05/24 15:46:14;;;;;;;1.25;0.82;;;;;;;;;;5040707;28;20098;-56